sensor_id;sensor_type;location;lat;lon;timestamp;P1;durP1;ratioP1;P2;durP2;ratioP2
37483;SDS011;23337;52.212;9.926;2023-03-20T00:01:45;6.47;;;5.70;;
37483;SDS011;23337;52.212;9.926;2023-03-20T00:04:12;7.60;;;6.80;;
37483;SDS011;23337;52.212;9.926;2023-03-20T00:06:37;10.27;;;6.50;;
37483;SDS011;23337;52.212;9.926;2023-03-20T00:09:03;8.03;;;7.23;;
37483;SDS011;23337;52.212;9.926;2023-03-20T00:11:30;7.63;;;6.83;;
37483;SDS011;23337;52.212;9.926;2023-03-20T00:14:04;7.00;;;6.23;;
37483;SDS011;23337;52.212;9.926;2023-03-20T00:16:32;12.73;;;9.70;;
37483;SDS011;23337;52.212;9.926;2023-03-20T00:18:58;12.77;;;11.40;;
37483;SDS011;23337;52.212;9.926;2023-03-20T00:21:24;16.30;;;13.63;;
37483;SDS011;23337;52.212;9.926;2023-03-20T00:23:51;16.70;;;14.27;;
37483;SDS011;23337;52.212;9.926;2023-03-20T00:26:17;18.30;;;16.17;;
37483;SDS011;23337;52.212;9.926;2023-03-20T00:31:14;25.80;;;22.50;;
37483;SDS011;23337;52.212;9.926;2023-03-20T00:33:40;25.70;;;21.90;;
37483;SDS011;23337;52.212;9.926;2023-03-20T00:36:07;27.97;;;22.40;;
37483;SDS011;23337;52.212;9.926;2023-03-20T00:38:33;27.40;;;22.47;;
37483;SDS011;23337;52.212;9.926;2023-03-20T00:40:59;26.47;;;21.63;;
37483;SDS011;23337;52.212;9.926;2023-03-20T00:43:25;31.77;;;24.37;;
37483;SDS011;23337;52.212;9.926;2023-03-20T00:45:51;29.53;;;23.20;;
37483;SDS011;23337;52.212;9.926;2023-03-20T00:48:17;32.10;;;23.03;;
37483;SDS011;23337;52.212;9.926;2023-03-20T00:50:43;30.03;;;22.87;;
37483;SDS011;23337;52.212;9.926;2023-03-20T00:53:10;29.63;;;23.07;;
37483;SDS011;23337;52.212;9.926;2023-03-20T00:55:36;30.63;;;23.23;;
37483;SDS011;23337;52.212;9.926;2023-03-20T00:58:03;31.70;;;22.90;;
37483;SDS011;23337;52.212;9.926;2023-03-20T01:00:33;33.23;;;23.73;;
37483;SDS011;23337;52.212;9.926;2023-03-20T01:03:00;34.10;;;23.60;;
37483;SDS011;23337;52.212;9.926;2023-03-20T01:05:29;30.23;;;22.87;;
37483;SDS011;23337;52.212;9.926;2023-03-20T01:07:55;31.53;;;23.60;;
37483;SDS011;23337;52.212;9.926;2023-03-20T01:10:23;30.90;;;22.23;;
37483;SDS011;23337;52.212;9.926;2023-03-20T01:12:50;36.90;;;24.67;;
37483;SDS011;23337;52.212;9.926;2023-03-20T01:15:24;30.60;;;22.47;;
37483;SDS011;23337;52.212;9.926;2023-03-20T01:17:50;30.47;;;22.30;;
37483;SDS011;23337;52.212;9.926;2023-03-20T01:20:21;30.50;;;23.60;;
37483;SDS011;23337;52.212;9.926;2023-03-20T01:22:47;34.23;;;23.27;;
37483;SDS011;23337;52.212;9.926;2023-03-20T01:25:13;32.00;;;23.20;;
37483;SDS011;23337;52.212;9.926;2023-03-20T01:27:40;32.50;;;22.73;;
37483;SDS011;23337;52.212;9.926;2023-03-20T01:30:13;34.20;;;23.30;;
37483;SDS011;23337;52.212;9.926;2023-03-20T01:32:40;30.13;;;23.00;;
37483;SDS011;23337;52.212;9.926;2023-03-20T01:35:10;35.17;;;24.63;;
37483;SDS011;23337;52.212;9.926;2023-03-20T01:37:36;34.30;;;23.50;;
37483;SDS011;23337;52.212;9.926;2023-03-20T01:40:02;35.43;;;24.17;;
37483;SDS011;23337;52.212;9.926;2023-03-20T01:42:29;35.27;;;23.73;;
37483;SDS011;23337;52.212;9.926;2023-03-20T01:44:56;34.53;;;23.87;;
37483;SDS011;23337;52.212;9.926;2023-03-20T01:47:23;35.13;;;23.50;;
37483;SDS011;23337;52.212;9.926;2023-03-20T01:52:25;34.77;;;23.67;;
37483;SDS011;23337;52.212;9.926;2023-03-20T01:54:51;33.33;;;23.33;;
37483;SDS011;23337;52.212;9.926;2023-03-20T01:57:17;41.03;;;25.13;;
37483;SDS011;23337;52.212;9.926;2023-03-20T02:02:12;36.93;;;24.10;;
37483;SDS011;23337;52.212;9.926;2023-03-20T02:04:41;37.07;;;26.07;;
37483;SDS011;23337;52.212;9.926;2023-03-20T02:07:07;39.60;;;25.63;;
37483;SDS011;23337;52.212;9.926;2023-03-20T02:09:35;40.03;;;24.40;;
37483;SDS011;23337;52.212;9.926;2023-03-20T02:12:02;38.73;;;26.03;;
37483;SDS011;23337;52.212;9.926;2023-03-20T02:14:28;41.53;;;25.87;;
37483;SDS011;23337;52.212;9.926;2023-03-20T02:16:55;43.37;;;25.73;;
37483;SDS011;23337;52.212;9.926;2023-03-20T02:20:06;38.43;;;23.07;;
37483;SDS011;23337;52.212;9.926;2023-03-20T02:41:00;41.50;;;25.70;;
37483;SDS011;23337;52.212;9.926;2023-03-20T02:48:31;39.13;;;24.07;;
37483;SDS011;23337;52.212;9.926;2023-03-20T02:51:11;38.53;;;23.80;;
37483;SDS011;23337;52.212;9.926;2023-03-20T02:58:35;31.20;;;20.33;;
37483;SDS011;23337;52.212;9.926;2023-03-20T03:01:13;30.33;;;19.50;;
37483;SDS011;23337;52.212;9.926;2023-03-20T03:03:43;30.00;;;18.70;;
37483;SDS011;23337;52.212;9.926;2023-03-20T03:06:11;28.77;;;18.60;;
37483;SDS011;23337;52.212;9.926;2023-03-20T03:08:40;31.57;;;19.23;;
37483;SDS011;23337;52.212;9.926;2023-03-20T03:11:08;30.90;;;19.70;;
37483;SDS011;23337;52.212;9.926;2023-03-20T03:13:48;31.80;;;19.13;;
37483;SDS011;23337;52.212;9.926;2023-03-20T03:16:17;26.80;;;17.07;;
37483;SDS011;23337;52.212;9.926;2023-03-20T03:18:44;28.93;;;16.57;;
37483;SDS011;23337;52.212;9.926;2023-03-20T03:21:11;29.23;;;16.93;;
37483;SDS011;23337;52.212;9.926;2023-03-20T03:23:42;29.57;;;17.23;;
37483;SDS011;23337;52.212;9.926;2023-03-20T03:26:09;28.97;;;15.93;;
37483;SDS011;23337;52.212;9.926;2023-03-20T03:28:45;22.00;;;15.80;;
37483;SDS011;23337;52.212;9.926;2023-03-20T03:31:13;27.03;;;17.10;;
37483;SDS011;23337;52.212;9.926;2023-03-20T03:33:41;29.27;;;16.83;;
37483;SDS011;23337;52.212;9.926;2023-03-20T03:36:26;24.47;;;16.67;;
37483;SDS011;23337;52.212;9.926;2023-03-20T03:38:57;26.27;;;15.80;;
37483;SDS011;23337;52.212;9.926;2023-03-20T03:44:03;27.03;;;16.07;;
37483;SDS011;23337;52.212;9.926;2023-03-20T03:48:58;25.93;;;16.30;;
37483;SDS011;23337;52.212;9.926;2023-03-20T03:51:25;27.90;;;17.67;;
37483;SDS011;23337;52.212;9.926;2023-03-20T03:56:39;28.17;;;17.87;;
37483;SDS011;23337;52.212;9.926;2023-03-20T03:59:07;33.27;;;18.90;;
37483;SDS011;23337;52.212;9.926;2023-03-20T04:01:34;29.93;;;17.80;;
37483;SDS011;23337;52.212;9.926;2023-03-20T04:04:02;26.67;;;17.43;;
37483;SDS011;23337;52.212;9.926;2023-03-20T04:06:29;26.27;;;18.37;;
37483;SDS011;23337;52.212;9.926;2023-03-20T04:08:55;27.83;;;18.57;;
37483;SDS011;23337;52.212;9.926;2023-03-20T04:11:21;27.33;;;15.93;;
37483;SDS011;23337;52.212;9.926;2023-03-20T04:13:52;27.97;;;18.00;;
37483;SDS011;23337;52.212;9.926;2023-03-20T04:16:19;27.07;;;17.10;;
37483;SDS011;23337;52.212;9.926;2023-03-20T04:18:46;28.10;;;17.57;;
37483;SDS011;23337;52.212;9.926;2023-03-20T04:21:12;23.40;;;16.43;;
37483;SDS011;23337;52.212;9.926;2023-03-20T04:23:39;27.50;;;16.77;;
37483;SDS011;23337;52.212;9.926;2023-03-20T04:26:05;26.83;;;17.57;;
37483;SDS011;23337;52.212;9.926;2023-03-20T04:28:32;28.07;;;17.83;;
37483;SDS011;23337;52.212;9.926;2023-03-20T04:30:58;28.17;;;17.37;;
37483;SDS011;23337;52.212;9.926;2023-03-20T04:33:25;26.60;;;17.63;;
37483;SDS011;23337;52.212;9.926;2023-03-20T04:35:51;29.40;;;18.10;;
37483;SDS011;23337;52.212;9.926;2023-03-20T04:38:18;28.10;;;17.33;;
37483;SDS011;23337;52.212;9.926;2023-03-20T04:40:44;33.27;;;18.73;;
37483;SDS011;23337;52.212;9.926;2023-03-20T04:43:10;26.80;;;17.77;;
37483;SDS011;23337;52.212;9.926;2023-03-20T04:45:37;29.93;;;18.60;;
37483;SDS011;23337;52.212;9.926;2023-03-20T04:48:02;32.40;;;17.70;;
37483;SDS011;23337;52.212;9.926;2023-03-20T04:50:28;31.73;;;18.67;;
37483;SDS011;23337;52.212;9.926;2023-03-20T04:52:54;28.83;;;18.13;;
37483;SDS011;23337;52.212;9.926;2023-03-20T04:55:20;28.83;;;17.33;;
37483;SDS011;23337;52.212;9.926;2023-03-20T04:57:47;28.27;;;17.80;;
37483;SDS011;23337;52.212;9.926;2023-03-20T05:00:13;30.87;;;18.10;;
37483;SDS011;23337;52.212;9.926;2023-03-20T05:02:39;28.10;;;18.40;;
37483;SDS011;23337;52.212;9.926;2023-03-20T05:05:05;31.80;;;19.27;;
37483;SDS011;23337;52.212;9.926;2023-03-20T05:07:31;30.03;;;17.37;;
37483;SDS011;23337;52.212;9.926;2023-03-20T05:09:57;32.27;;;18.57;;
37483;SDS011;23337;52.212;9.926;2023-03-20T05:12:23;31.07;;;19.43;;
37483;SDS011;23337;52.212;9.926;2023-03-20T05:14:51;31.93;;;19.40;;
37483;SDS011;23337;52.212;9.926;2023-03-20T05:17:18;35.60;;;19.77;;
37483;SDS011;23337;52.212;9.926;2023-03-20T05:19:44;34.00;;;20.47;;
37483;SDS011;23337;52.212;9.926;2023-03-20T05:22:11;33.53;;;19.07;;
37483;SDS011;23337;52.212;9.926;2023-03-20T05:24:37;36.23;;;20.43;;
37483;SDS011;23337;52.212;9.926;2023-03-20T05:27:03;30.63;;;18.67;;
37483;SDS011;23337;52.212;9.926;2023-03-20T05:29:29;32.67;;;19.80;;
37483;SDS011;23337;52.212;9.926;2023-03-20T05:31:55;32.50;;;20.27;;
37483;SDS011;23337;52.212;9.926;2023-03-20T05:34:21;34.47;;;19.73;;
37483;SDS011;23337;52.212;9.926;2023-03-20T05:36:47;37.40;;;21.47;;
37483;SDS011;23337;52.212;9.926;2023-03-20T05:39:13;34.60;;;19.83;;
37483;SDS011;23337;52.212;9.926;2023-03-20T05:41:40;37.00;;;19.87;;
37483;SDS011;23337;52.212;9.926;2023-03-20T05:44:06;37.13;;;20.70;;
37483;SDS011;23337;52.212;9.926;2023-03-20T05:46:32;35.07;;;20.60;;
37483;SDS011;23337;52.212;9.926;2023-03-20T05:48:58;35.03;;;20.07;;
37483;SDS011;23337;52.212;9.926;2023-03-20T05:51:23;33.70;;;19.80;;
37483;SDS011;23337;52.212;9.926;2023-03-20T05:53:49;32.77;;;19.40;;
37483;SDS011;23337;52.212;9.926;2023-03-20T05:56:15;37.00;;;20.87;;
37483;SDS011;23337;52.212;9.926;2023-03-20T05:58:41;37.53;;;19.83;;
37483;SDS011;23337;52.212;9.926;2023-03-20T06:01:07;31.87;;;18.37;;
37483;SDS011;23337;52.212;9.926;2023-03-20T06:03:33;36.63;;;19.77;;
37483;SDS011;23337;52.212;9.926;2023-03-20T06:06:00;30.23;;;18.93;;
37483;SDS011;23337;52.212;9.926;2023-03-20T06:08:26;33.97;;;18.67;;
37483;SDS011;23337;52.212;9.926;2023-03-20T06:10:54;36.17;;;20.23;;
37483;SDS011;23337;52.212;9.926;2023-03-20T06:13:20;32.00;;;19.43;;
37483;SDS011;23337;52.212;9.926;2023-03-20T06:15:46;35.13;;;20.00;;
37483;SDS011;23337;52.212;9.926;2023-03-20T06:18:12;34.97;;;20.37;;
37483;SDS011;23337;52.212;9.926;2023-03-20T06:20:38;39.97;;;21.27;;
37483;SDS011;23337;52.212;9.926;2023-03-20T06:23:04;33.40;;;19.73;;
37483;SDS011;23337;52.212;9.926;2023-03-20T06:25:30;33.47;;;21.37;;
37483;SDS011;23337;52.212;9.926;2023-03-20T06:27:56;36.60;;;19.73;;
37483;SDS011;23337;52.212;9.926;2023-03-20T06:30:22;36.80;;;20.27;;
37483;SDS011;23337;52.212;9.926;2023-03-20T06:32:48;38.40;;;21.50;;
37483;SDS011;23337;52.212;9.926;2023-03-20T06:35:14;39.47;;;21.57;;
37483;SDS011;23337;52.212;9.926;2023-03-20T06:37:41;37.03;;;20.70;;
37483;SDS011;23337;52.212;9.926;2023-03-20T06:40:08;36.50;;;22.80;;
37483;SDS011;23337;52.212;9.926;2023-03-20T06:42:34;43.23;;;22.17;;
37483;SDS011;23337;52.212;9.926;2023-03-20T06:45:00;39.00;;;21.60;;
37483;SDS011;23337;52.212;9.926;2023-03-20T06:47:26;32.73;;;20.03;;
37483;SDS011;23337;52.212;9.926;2023-03-20T06:49:52;36.53;;;20.83;;
37483;SDS011;23337;52.212;9.926;2023-03-20T06:52:18;38.83;;;21.97;;
37483;SDS011;23337;52.212;9.926;2023-03-20T06:54:46;37.83;;;22.27;;
37483;SDS011;23337;52.212;9.926;2023-03-20T06:57:12;34.27;;;21.43;;
37483;SDS011;23337;52.212;9.926;2023-03-20T06:59:38;37.57;;;21.90;;
37483;SDS011;23337;52.212;9.926;2023-03-20T07:02:04;31.80;;;20.67;;
37483;SDS011;23337;52.212;9.926;2023-03-20T07:04:31;36.53;;;22.30;;
37483;SDS011;23337;52.212;9.926;2023-03-20T07:06:57;40.07;;;22.20;;
37483;SDS011;23337;52.212;9.926;2023-03-20T07:09:23;37.37;;;21.10;;
37483;SDS011;23337;52.212;9.926;2023-03-20T07:11:49;37.30;;;20.43;;
37483;SDS011;23337;52.212;9.926;2023-03-20T07:14:15;38.93;;;22.83;;
37483;SDS011;23337;52.212;9.926;2023-03-20T07:16:41;39.00;;;22.03;;
37483;SDS011;23337;52.212;9.926;2023-03-20T07:19:07;37.20;;;22.47;;
37483;SDS011;23337;52.212;9.926;2023-03-20T07:21:34;41.13;;;24.87;;
37483;SDS011;23337;52.212;9.926;2023-03-20T07:24:00;43.10;;;25.20;;
37483;SDS011;23337;52.212;9.926;2023-03-20T07:26:26;40.67;;;23.27;;
37483;SDS011;23337;52.212;9.926;2023-03-20T07:28:52;40.40;;;23.07;;
37483;SDS011;23337;52.212;9.926;2023-03-20T07:31:22;40.33;;;22.80;;
37483;SDS011;23337;52.212;9.926;2023-03-20T07:33:48;35.87;;;22.10;;
37483;SDS011;23337;52.212;9.926;2023-03-20T07:36:14;37.50;;;22.87;;
37483;SDS011;23337;52.212;9.926;2023-03-20T07:38:41;36.77;;;22.53;;
37483;SDS011;23337;52.212;9.926;2023-03-20T07:41:06;33.40;;;21.70;;
37483;SDS011;23337;52.212;9.926;2023-03-20T07:43:33;33.90;;;21.43;;
37483;SDS011;23337;52.212;9.926;2023-03-20T07:46:02;33.80;;;21.80;;
37483;SDS011;23337;52.212;9.926;2023-03-20T07:48:28;33.03;;;20.30;;
37483;SDS011;23337;52.212;9.926;2023-03-20T07:50:54;32.10;;;19.40;;
37483;SDS011;23337;52.212;9.926;2023-03-20T07:53:20;30.40;;;19.97;;
37483;SDS011;23337;52.212;9.926;2023-03-20T07:55:46;30.93;;;19.87;;
37483;SDS011;23337;52.212;9.926;2023-03-20T07:58:12;30.07;;;19.50;;
37483;SDS011;23337;52.212;9.926;2023-03-20T08:00:38;31.37;;;20.07;;
37483;SDS011;23337;52.212;9.926;2023-03-20T08:03:05;27.77;;;18.27;;
37483;SDS011;23337;52.212;9.926;2023-03-20T08:05:31;30.70;;;20.27;;
37483;SDS011;23337;52.212;9.926;2023-03-20T08:07:57;28.93;;;18.97;;
37483;SDS011;23337;52.212;9.926;2023-03-20T08:10:23;33.47;;;21.20;;
37483;SDS011;23337;52.212;9.926;2023-03-20T08:12:49;31.30;;;21.53;;
37483;SDS011;23337;52.212;9.926;2023-03-20T08:15:15;32.10;;;20.93;;
37483;SDS011;23337;52.212;9.926;2023-03-20T08:17:42;35.70;;;20.90;;
37483;SDS011;23337;52.212;9.926;2023-03-20T08:20:08;32.20;;;19.63;;
37483;SDS011;23337;52.212;9.926;2023-03-20T08:22:35;30.53;;;20.17;;
37483;SDS011;23337;52.212;9.926;2023-03-20T08:25:01;36.33;;;21.87;;
37483;SDS011;23337;52.212;9.926;2023-03-20T08:27:27;38.63;;;24.10;;
37483;SDS011;23337;52.212;9.926;2023-03-20T08:29:52;37.43;;;22.90;;
37483;SDS011;23337;52.212;9.926;2023-03-20T08:32:18;33.77;;;21.37;;
37483;SDS011;23337;52.212;9.926;2023-03-20T08:34:44;34.33;;;21.77;;
37483;SDS011;23337;52.212;9.926;2023-03-20T08:37:10;30.00;;;20.57;;
37483;SDS011;23337;52.212;9.926;2023-03-20T08:39:37;34.27;;;21.77;;
37483;SDS011;23337;52.212;9.926;2023-03-20T08:42:03;33.83;;;22.17;;
37483;SDS011;23337;52.212;9.926;2023-03-20T08:44:30;38.03;;;22.33;;
37483;SDS011;23337;52.212;9.926;2023-03-20T08:46:56;35.63;;;22.00;;
37483;SDS011;23337;52.212;9.926;2023-03-20T08:49:22;38.67;;;21.50;;
37483;SDS011;23337;52.212;9.926;2023-03-20T08:51:48;36.73;;;21.83;;
37483;SDS011;23337;52.212;9.926;2023-03-20T08:54:14;35.47;;;22.33;;
37483;SDS011;23337;52.212;9.926;2023-03-20T08:56:42;35.13;;;22.00;;
37483;SDS011;23337;52.212;9.926;2023-03-20T08:59:08;33.37;;;20.40;;
37483;SDS011;23337;52.212;9.926;2023-03-20T09:01:34;36.03;;;21.03;;
37483;SDS011;23337;52.212;9.926;2023-03-20T09:04:00;30.67;;;19.63;;
37483;SDS011;23337;52.212;9.926;2023-03-20T09:06:26;26.83;;;18.87;;
37483;SDS011;23337;52.212;9.926;2023-03-20T09:08:53;27.37;;;17.47;;
37483;SDS011;23337;52.212;9.926;2023-03-20T09:11:21;22.20;;;16.63;;
37483;SDS011;23337;52.212;9.926;2023-03-20T09:13:47;27.60;;;17.13;;
37483;SDS011;23337;52.212;9.926;2023-03-20T09:16:13;27.10;;;17.43;;
37483;SDS011;23337;52.212;9.926;2023-03-20T09:18:39;27.70;;;18.23;;
37483;SDS011;23337;52.212;9.926;2023-03-20T09:21:05;22.90;;;15.80;;
37483;SDS011;23337;52.212;9.926;2023-03-20T09:23:31;23.87;;;16.57;;
37483;SDS011;23337;52.212;9.926;2023-03-20T09:25:57;20.40;;;15.43;;
37483;SDS011;23337;52.212;9.926;2023-03-20T09:28:23;21.93;;;14.93;;
37483;SDS011;23337;52.212;9.926;2023-03-20T09:30:53;21.77;;;15.83;;
37483;SDS011;23337;52.212;9.926;2023-03-20T09:33:19;20.80;;;14.77;;
37483;SDS011;23337;52.212;9.926;2023-03-20T09:35:45;22.37;;;15.80;;
37483;SDS011;23337;52.212;9.926;2023-03-20T09:38:11;23.90;;;15.87;;
37483;SDS011;23337;52.212;9.926;2023-03-20T09:43:15;24.00;;;17.83;;
37483;SDS011;23337;52.212;9.926;2023-03-20T09:45:53;23.70;;;17.20;;
37483;SDS011;23337;52.212;9.926;2023-03-20T09:48:25;26.57;;;17.50;;
37483;SDS011;23337;52.212;9.926;2023-03-20T09:53:39;30.83;;;20.33;;
37483;SDS011;23337;52.212;9.926;2023-03-20T09:56:05;32.10;;;21.27;;
37483;SDS011;23337;52.212;9.926;2023-03-20T09:58:35;30.23;;;21.63;;
37483;SDS011;23337;52.212;9.926;2023-03-20T10:01:03;36.03;;;23.00;;
37483;SDS011;23337;52.212;9.926;2023-03-20T10:03:46;42.35;;;30.05;;
37483;SDS011;23337;52.212;9.926;2023-03-20T10:06:13;38.33;;;27.83;;
37483;SDS011;23337;52.212;9.926;2023-03-20T10:08:40;40.10;;;27.77;;
37483;SDS011;23337;52.212;9.926;2023-03-20T10:16:14;43.77;;;29.10;;
37483;SDS011;23337;52.212;9.926;2023-03-20T10:18:44;41.30;;;28.87;;
37483;SDS011;23337;52.212;9.926;2023-03-20T10:21:16;35.33;;;24.93;;
37483;SDS011;23337;52.212;9.926;2023-03-20T10:26:13;35.73;;;24.37;;
37483;SDS011;23337;52.212;9.926;2023-03-20T10:33:58;29.23;;;22.83;;
37483;SDS011;23337;52.212;9.926;2023-03-20T10:41:53;25.67;;;21.70;;
37483;SDS011;23337;52.212;9.926;2023-03-20T10:44:30;23.20;;;19.97;;
37483;SDS011;23337;52.212;9.926;2023-03-20T10:46:58;24.53;;;18.80;;
37483;SDS011;23337;52.212;9.926;2023-03-20T10:49:30;27.57;;;22.13;;
37483;SDS011;23337;52.212;9.926;2023-03-20T10:51:59;21.83;;;19.50;;
37483;SDS011;23337;52.212;9.926;2023-03-20T10:54:41;24.07;;;20.80;;
37483;SDS011;23337;52.212;9.926;2023-03-20T10:57:41;21.60;;;18.33;;
37483;SDS011;23337;52.212;9.926;2023-03-20T10:59:59;23.37;;;19.10;;
37483;SDS011;23337;52.212;9.926;2023-03-20T11:02:29;21.77;;;19.47;;
37483;SDS011;23337;52.212;9.926;2023-03-20T11:04:55;20.93;;;17.63;;
37483;SDS011;23337;52.212;9.926;2023-03-20T11:07:31;19.63;;;17.73;;
37483;SDS011;23337;52.212;9.926;2023-03-20T11:12:33;20.47;;;17.70;;
37483;SDS011;23337;52.212;9.926;2023-03-20T11:14:59;17.30;;;15.37;;
37483;SDS011;23337;52.212;9.926;2023-03-20T11:17:27;18.47;;;16.57;;
37483;SDS011;23337;52.212;9.926;2023-03-20T11:19:53;18.17;;;16.23;;
37483;SDS011;23337;52.212;9.926;2023-03-20T11:22:26;17.87;;;16.07;;
37483;SDS011;23337;52.212;9.926;2023-03-20T11:24:54;17.80;;;16.10;;
37483;SDS011;23337;52.212;9.926;2023-03-20T11:27:26;16.00;;;14.40;;
37483;SDS011;23337;52.212;9.926;2023-03-20T11:29:52;16.40;;;14.73;;
37483;SDS011;23337;52.212;9.926;2023-03-20T11:32:26;18.33;;;16.57;;
37483;SDS011;23337;52.212;9.926;2023-03-20T11:34:53;15.40;;;13.90;;
37483;SDS011;23337;52.212;9.926;2023-03-20T11:39:55;16.27;;;13.83;;
37483;SDS011;23337;52.212;9.926;2023-03-20T11:42:23;15.63;;;14.03;;
37483;SDS011;23337;52.212;9.926;2023-03-20T11:44:57;15.20;;;13.60;;
37483;SDS011;23337;52.212;9.926;2023-03-20T11:47:24;14.77;;;13.40;;
37483;SDS011;23337;52.212;9.926;2023-03-20T11:49:53;16.10;;;14.47;;
37483;SDS011;23337;52.212;9.926;2023-03-20T11:52:21;15.37;;;14.00;;
37483;SDS011;23337;52.212;9.926;2023-03-20T11:54:48;16.57;;;14.17;;
37483;SDS011;23337;52.212;9.926;2023-03-20T11:57:48;16.97;;;15.17;;
37483;SDS011;23337;52.212;9.926;2023-03-20T12:00:27;16.23;;;14.60;;
37483;SDS011;23337;52.212;9.926;2023-03-20T12:02:54;16.60;;;14.90;;
37483;SDS011;23337;52.212;9.926;2023-03-20T12:05:27;16.73;;;15.00;;
37483;SDS011;23337;52.212;9.926;2023-03-20T12:07:55;18.35;;;16.52;;
37483;SDS011;23337;52.212;9.926;2023-03-20T12:10:22;16.30;;;14.80;;
37483;SDS011;23337;52.212;9.926;2023-03-20T12:12:54;16.13;;;14.37;;
37483;SDS011;23337;52.212;9.926;2023-03-20T12:22:57;16.20;;;14.60;;
37483;SDS011;23337;52.212;9.926;2023-03-20T12:26:10;15.13;;;13.60;;
37483;SDS011;23337;52.212;9.926;2023-03-20T12:28:19;18.83;;;14.27;;
37483;SDS011;23337;52.212;9.926;2023-03-20T12:30:55;16.13;;;14.53;;
37483;SDS011;23337;52.212;9.926;2023-03-20T12:35:51;16.40;;;14.27;;
37483;SDS011;23337;52.212;9.926;2023-03-20T12:40:44;16.10;;;14.53;;
37483;SDS011;23337;52.212;9.926;2023-03-20T12:43:14;13.90;;;12.70;;
37483;SDS011;23337;52.212;9.926;2023-03-20T12:45:46;14.70;;;13.17;;
37483;SDS011;23337;52.212;9.926;2023-03-20T12:53:27;14.03;;;12.57;;
37483;SDS011;23337;52.212;9.926;2023-03-20T12:56:17;15.33;;;13.37;;
37483;SDS011;23337;52.212;9.926;2023-03-20T12:58:47;17.20;;;15.33;;
37483;SDS011;23337;52.212;9.926;2023-03-20T13:09:12;15.80;;;14.17;;
37483;SDS011;23337;52.212;9.926;2023-03-20T13:16:54;19.83;;;17.40;;
37483;SDS011;23337;52.212;9.926;2023-03-20T13:22:09;15.90;;;14.40;;
37483;SDS011;23337;52.212;9.926;2023-03-20T13:24:46;14.67;;;13.27;;
37483;SDS011;23337;52.212;9.926;2023-03-20T13:27:22;14.10;;;12.90;;
37483;SDS011;23337;52.212;9.926;2023-03-20T13:30:14;11.93;;;10.67;;
37483;SDS011;23337;52.212;9.926;2023-03-20T13:35:29;10.40;;;9.50;;
37483;SDS011;23337;52.212;9.926;2023-03-20T13:37:58;10.87;;;9.87;;
37483;SDS011;23337;52.212;9.926;2023-03-20T13:40:32;10.17;;;9.07;;
37483;SDS011;23337;52.212;9.926;2023-03-20T13:45:41;11.07;;;10.00;;
37483;SDS011;23337;52.212;9.926;2023-03-20T13:48:17;11.27;;;10.27;;
37483;SDS011;23337;52.212;9.926;2023-03-20T13:58:36;11.17;;;10.27;;
37483;SDS011;23337;52.212;9.926;2023-03-20T14:01:49;11.37;;;10.47;;
37483;SDS011;23337;52.212;9.926;2023-03-20T14:03:55;11.93;;;10.90;;
37483;SDS011;23337;52.212;9.926;2023-03-20T14:08:56;9.83;;;8.93;;
37483;SDS011;23337;52.212;9.926;2023-03-20T14:13:49;11.60;;;10.60;;
37483;SDS011;23337;52.212;9.926;2023-03-20T14:16:16;11.00;;;10.03;;
37483;SDS011;23337;52.212;9.926;2023-03-20T14:18:44;11.60;;;10.43;;
37483;SDS011;23337;52.212;9.926;2023-03-20T14:21:13;10.67;;;9.67;;
37483;SDS011;23337;52.212;9.926;2023-03-20T14:26:11;10.13;;;9.23;;
37483;SDS011;23337;52.212;9.926;2023-03-20T14:28:43;11.87;;;10.83;;
37483;SDS011;23337;52.212;9.926;2023-03-20T14:31:11;12.33;;;11.17;;
37483;SDS011;23337;52.212;9.926;2023-03-20T14:33:41;13.13;;;11.87;;
37483;SDS011;23337;52.212;9.926;2023-03-20T14:36:17;10.83;;;9.83;;
37483;SDS011;23337;52.212;9.926;2023-03-20T14:41:31;11.93;;;9.77;;
37483;SDS011;23337;52.212;9.926;2023-03-20T14:44:07;11.17;;;10.00;;
37483;SDS011;23337;52.212;9.926;2023-03-20T14:46:45;11.53;;;10.53;;
37483;SDS011;23337;52.212;9.926;2023-03-20T14:49:21;13.57;;;12.17;;
37483;SDS011;23337;52.212;9.926;2023-03-20T14:51:48;12.70;;;11.60;;
37483;SDS011;23337;52.212;9.926;2023-03-20T14:54:26;15.00;;;13.03;;
37483;SDS011;23337;52.212;9.926;2023-03-20T14:56:52;12.87;;;11.43;;
37483;SDS011;23337;52.212;9.926;2023-03-20T14:59:19;13.23;;;12.00;;
37483;SDS011;23337;52.212;9.926;2023-03-20T15:04:29;14.13;;;12.73;;
37483;SDS011;23337;52.212;9.926;2023-03-20T15:06:57;13.73;;;12.43;;
37483;SDS011;23337;52.212;9.926;2023-03-20T15:09:24;12.37;;;11.23;;
37483;SDS011;23337;52.212;9.926;2023-03-20T15:11:51;11.93;;;10.80;;
37483;SDS011;23337;52.212;9.926;2023-03-20T15:14:21;12.20;;;11.10;;
37483;SDS011;23337;52.212;9.926;2023-03-20T15:16:55;14.00;;;12.07;;
37483;SDS011;23337;52.212;9.926;2023-03-20T15:19:21;11.17;;;9.93;;
37483;SDS011;23337;52.212;9.926;2023-03-20T15:21:47;11.97;;;10.67;;
37483;SDS011;23337;52.212;9.926;2023-03-20T15:24:19;11.80;;;10.70;;
37483;SDS011;23337;52.212;9.926;2023-03-20T15:26:45;13.17;;;11.57;;
37483;SDS011;23337;52.212;9.926;2023-03-20T15:29:12;11.93;;;10.57;;
37483;SDS011;23337;52.212;9.926;2023-03-20T15:31:41;11.67;;;10.57;;
37483;SDS011;23337;52.212;9.926;2023-03-20T15:34:07;12.73;;;11.43;;
37483;SDS011;23337;52.212;9.926;2023-03-20T15:36:34;15.17;;;11.53;;
37483;SDS011;23337;52.212;9.926;2023-03-20T15:39:16;11.70;;;10.60;;
37483;SDS011;23337;52.212;9.926;2023-03-20T15:41:43;12.57;;;11.33;;
37483;SDS011;23337;52.212;9.926;2023-03-20T15:46:36;11.87;;;10.77;;
37483;SDS011;23337;52.212;9.926;2023-03-20T15:49:03;11.00;;;10.03;;
37483;SDS011;23337;52.212;9.926;2023-03-20T15:51:29;11.80;;;10.67;;
37483;SDS011;23337;52.212;9.926;2023-03-20T15:53:55;11.23;;;10.10;;
37483;SDS011;23337;52.212;9.926;2023-03-20T15:56:23;11.47;;;10.37;;
37483;SDS011;23337;52.212;9.926;2023-03-20T15:58:50;12.97;;;10.13;;
37483;SDS011;23337;52.212;9.926;2023-03-20T16:01:17;11.30;;;10.30;;
37483;SDS011;23337;52.212;9.926;2023-03-20T16:03:44;10.00;;;9.00;;
37483;SDS011;23337;52.212;9.926;2023-03-20T16:06:10;9.03;;;8.13;;
37483;SDS011;23337;52.212;9.926;2023-03-20T16:08:40;12.07;;;8.83;;
37483;SDS011;23337;52.212;9.926;2023-03-20T16:11:15;10.73;;;8.33;;
37483;SDS011;23337;52.212;9.926;2023-03-20T16:13:43;9.40;;;8.60;;
37483;SDS011;23337;52.212;9.926;2023-03-20T16:16:20;8.93;;;8.13;;
37483;SDS011;23337;52.212;9.926;2023-03-20T16:18:47;9.03;;;8.10;;
37483;SDS011;23337;52.212;9.926;2023-03-20T16:21:27;10.07;;;9.00;;
37483;SDS011;23337;52.212;9.926;2023-03-20T16:23:55;11.83;;;8.77;;
37483;SDS011;23337;52.212;9.926;2023-03-20T16:26:22;10.77;;;9.67;;
37483;SDS011;23337;52.212;9.926;2023-03-20T16:28:50;10.87;;;9.77;;
37483;SDS011;23337;52.212;9.926;2023-03-20T16:31:27;9.80;;;9.03;;
37483;SDS011;23337;52.212;9.926;2023-03-20T16:33:57;10.63;;;8.30;;
37483;SDS011;23337;52.212;9.926;2023-03-20T16:36:28;9.17;;;8.37;;
37483;SDS011;23337;52.212;9.926;2023-03-20T16:38:55;9.30;;;8.40;;
37483;SDS011;23337;52.212;9.926;2023-03-20T16:41:34;9.53;;;8.63;;
37483;SDS011;23337;52.212;9.926;2023-03-20T16:44:05;10.60;;;8.50;;
37483;SDS011;23337;52.212;9.926;2023-03-20T16:46:32;13.30;;;9.13;;